Decoded Metar for KW13 ( in ) (IATA:) | Meteo·Mobile Aviation Weather
aviador You're here:

KW13 Decoded Metar

in
Report Time2019-10-18 13:15:00
UTC Time2019-10-18 13:16:20
Flight Rules vfr VFR
Wind340° at 03 kt
Visibility9999 m
Phenomena:N/A
Clouds:N/A
Expected CloudBase > 3,200 ft AGL from Temp-Dew spread
CeilingNone
Temp08°C
Dew Point00°C (57% RH)
AAT4.9°C
QNH1016 hPa
Raw Report
METAR KW13 181315Z AUTO 34003KT 10SM CLR 08/00 A3001 RMK AO1 T00810001=

Extra information for KW13:More info

Social comments